Time;durP1;ratioP1;P1;durP2;ratioP2;P2;SDS_P1;SDS_P2;PMS_P1;PMS_P2;Temp;Humidity;BMP_temperature;BMP_pressure;BME280_temperature;BME280_humidity;BME280_pressure;Samples;Min_cycle;Max_cycle;Signal;HPM_P1;HPM_P2
2023/07/09 00:03:58;;;;;;;15.73;9.35;;;;;;;21.73;100.00;101438.59;5115554;28;20499;-75
2023/07/09 00:09:45;;;;;;;12.65;8.70;;;;;;;21.58;100.00;101441.31;5114936;28;20315;-75
2023/07/09 00:12:16;;;;;;;14.95;8.43;;;;;;;21.43;100.00;101446.75;5114114;28;20483;-75
2023/07/09 00:18:03;;;;;;;11.18;8.05;;;;;;;21.34;100.00;101450.00;5114855;28;20035;-75
2023/07/09 00:23:50;;;;;;;13.10;8.10;;;;;;;21.40;100.00;101464.44;5115152;28;20042;-76
2023/07/09 00:26:17;;;;;;;11.13;7.72;;;;;;;21.31;100.00;101457.91;5096427;28;20028;-75
2023/07/09 00:28:43;;;;;;;10.50;7.05;;;;;;;21.26;100.00;101458.72;5095612;28;20028;-75
2023/07/09 00:31:15;;;;;;;12.25;7.93;;;;;;;21.31;100.00;101461.44;5114473;28;20475;-75
2023/07/09 00:37:02;;;;;;;12.15;7.78;;;;;;;21.36;100.00;101459.78;5114566;28;20399;-75
2023/07/09 00:39:27;;;;;;;13.68;9.63;;;;;;;21.29;100.00;101458.16;5096146;28;20028;-74
2023/07/09 00:41:52;;;;;;;11.10;8.63;;;;;;;21.23;100.00;101472.84;5113608;28;20084;-74
2023/07/09 00:48:14;;;;;;;11.32;8.93;;;;;;;21.16;100.00;101468.75;5114371;28;20318;-75
2023/07/09 00:50:47;;;;;;;12.90;9.45;;;;;;;21.03;100.00;101465.44;5052814;28;20067;-74
2023/07/09 00:56:40;;;;;;;15.30;9.65;;;;;;;20.95;100.00;101465.16;5114536;28;20083;-76
2023/07/09 01:02:29;;;;;;;11.68;8.68;;;;;;;20.87;100.00;101454.81;5114512;28;20061;-75
2023/07/09 01:08:16;;;;;;;16.13;9.75;;;;;;;20.71;100.00;101460.16;5114313;28;20104;-75
2023/07/09 01:14:07;;;;;;;17.60;10.52;;;;;;;20.48;100.00;101455.19;5113874;28;20276;-74
2023/07/09 01:19:55;;;;;;;16.60;10.85;;;;;;;20.43;100.00;101452.44;5114035;28;20104;-75
2023/07/09 01:25:52;;;;;;;15.50;10.40;;;;;;;20.32;100.00;101462.44;5114591;28;20429;-74
2023/07/09 01:31:39;;;;;;;16.20;11.50;;;;;;;20.22;100.00;101451.47;5113930;28;20038;-74
2023/07/09 01:37:27;;;;;;;14.52;11.82;;;;;;;20.27;100.00;101473.25;5113742;28;20097;-75
2023/07/09 01:39:54;;;;;;;17.77;11.38;;;;;;;20.26;100.00;101466.19;5113321;28;20061;-76
2023/07/09 01:45:41;;;;;;;15.25;10.30;;;;;;;20.40;100.00;101467.38;5113686;28;20047;-76
2023/07/09 01:51:28;;;;;;;13.50;10.70;;;;;;;20.33;100.00;101480.34;5113578;28;20058;-75
2023/07/09 01:57:24;;;;;;;15.00;10.70;;;;;;;20.04;100.00;101479.09;5112805;28;20078;-76
2023/07/09 02:03:11;;;;;;;17.88;12.95;;;;;;;19.99;100.00;101495.34;5113634;28;20050;-76
2023/07/09 02:08:58;;;;;;;16.80;12.52;;;;;;;20.15;100.00;101496.25;5113435;28;20093;-75
2023/07/09 02:14:46;;;;;;;18.50;13.25;;;;;;;20.14;100.00;101490.00;5113224;28;20518;-75
2023/07/09 02:17:14;;;;;;;16.17;11.73;;;;;;;20.09;100.00;101492.69;5112939;28;20094;-75
2023/07/09 02:19:39;;;;;;;15.65;11.55;;;;;;;20.10;100.00;101489.72;5093982;28;20540;-75
2023/07/09 02:25:26;;;;;;;17.45;12.48;;;;;;;20.00;100.00;101494.28;5112832;28;20269;-75
2023/07/09 02:31:15;;;;;;;18.20;12.02;;;;;;;19.98;100.00;101491.00;5112996;28;20549;-75
2023/07/09 02:37:02;;;;;;;18.80;13.00;;;;;;;20.03;100.00;101485.59;5112199;28;20092;-75
2023/07/09 02:42:49;;;;;;;15.88;12.45;;;;;;;19.89;100.00;101485.22;5112738;28;20144;-77
2023/07/09 02:48:36;;;;;;;19.63;11.95;;;;;;;19.87;100.00;101487.38;5112439;28;20268;-75
2023/07/09 02:51:01;;;;;;;15.87;12.17;;;;;;;19.86;100.00;101476.78;5093535;28;20040;-75
2023/07/09 02:56:48;;;;;;;16.58;12.05;;;;;;;19.83;100.00;101482.72;5112242;28;20828;-75
2023/07/09 03:02:35;;;;;;;15.27;11.85;;;;;;;19.86;100.00;101483.03;5112556;28;20034;-75
2023/07/09 03:05:00;;;;;;;20.13;12.80;;;;;;;19.93;100.00;101489.03;5112155;28;20031;-74
2023/07/09 03:10:47;;;;;;;17.55;11.82;;;;;;;19.74;100.00;101485.13;5112194;28;20093;-74
2023/07/09 03:16:35;;;;;;;16.17;12.60;;;;;;;19.62;100.00;101481.75;5112247;28;20112;-76
2023/07/09 03:22:21;;;;;;;16.02;12.40;;;;;;;19.57;100.00;101470.84;5112499;28;20050;-76
2023/07/09 03:28:08;;;;;;;18.65;13.05;;;;;;;19.49;100.00;101491.91;5107437;28;20440;-75
2023/07/09 03:33:55;;;;;;;20.20;15.13;;;;;;;19.53;100.00;101489.53;5112071;28;20137;-75
2023/07/09 03:36:21;;;;;;;25.77;15.85;;;;;;;19.55;100.00;101492.00;5111072;28;20476;-75
2023/07/09 03:38:47;;;;;;;21.15;14.73;;;;;;;19.53;100.00;101491.41;5111680;28;20365;-76
2023/07/09 03:41:12;;;;;;;17.42;13.90;;;;;;;19.56;100.00;101486.31;5092736;28;20074;-76
2023/07/09 03:47:00;;;;;;;14.93;13.32;;;;;;;19.65;100.00;101478.50;5111881;28;20046;-76
2023/07/09 03:52:46;;;;;;;16.42;11.98;;;;;;;19.73;100.00;101483.47;5111625;28;20081;-75
2023/07/09 03:58:33;;;;;;;18.80;13.52;;;;;;;19.89;100.00;101471.63;5111807;28;20080;-75
2023/07/09 04:00:59;;;;;;;19.23;13.53;;;;;;;20.01;100.00;101483.16;5110720;28;20127;-75
2023/07/09 04:06:46;;;;;;;20.13;13.80;;;;;;;20.04;100.00;101484.53;5111078;28;20272;-75
2023/07/09 04:12:34;;;;;;;23.10;14.93;;;;;;;20.09;100.00;101487.25;5111678;28;20084;-75
2023/07/09 04:15:00;;;;;;;21.23;14.93;;;;;;;20.14;100.00;101479.16;5110450;28;20473;-75
2023/07/09 04:20:51;;;;;;;16.90;13.40;;;;;;;20.27;100.00;101484.13;5112803;28;20045;-75
2023/07/09 04:26:38;;;;;;;23.92;12.52;;;;;;;20.42;100.00;101491.56;5114653;28;20046;-75
2023/07/09 04:29:05;;;;;;;16.45;13.10;;;;;;;20.40;100.00;101489.13;5114193;28;20042;-75
2023/07/09 04:34:51;;;;;;;17.52;13.07;;;;;;;20.42;100.00;101486.94;5114872;28;20046;-74
2023/07/09 04:37:17;;;;;;;15.17;13.07;;;;;;;20.54;100.00;101485.94;5096330;28;20027;-73
2023/07/09 04:39:43;;;;;;;19.00;13.02;;;;;;;20.64;100.00;101484.06;5095591;28;20356;-73
2023/07/09 04:48:51;;;;;;;20.25;16.70;;;;;;;21.30;100.00;101486.19;5114726;28;20118;-75
2023/07/09 04:54:43;;;;;;;20.05;16.50;;;;;;;21.59;100.00;101492.75;5114182;28;20105;-75
2023/07/09 05:04:29;;;;;;;31.05;21.85;;;;;;;22.43;100.00;101491.31;5114233;28;20093;-75
2023/07/09 05:06:54;;;;;;;27.48;20.67;;;;;;;22.64;100.00;101489.34;5113302;28;20551;-76
2023/07/09 05:09:20;;;;;;;31.10;21.93;;;;;;;22.86;100.00;101480.81;5114061;28;20161;-75
2023/07/09 05:11:45;;;;;;;23.30;18.20;;;;;;;23.05;100.00;101489.16;5095663;28;20273;-75
2023/07/09 05:17:32;;;;;;;27.13;22.02;;;;;;;23.60;100.00;101496.19;5114172;28;20119;-74
2023/07/09 05:23:19;;;;;;;26.60;23.45;;;;;;;24.39;100.00;101497.66;5113801;28;20514;-77
2023/07/09 05:25:45;;;;;;;32.30;23.97;;;;;;;24.65;100.00;101495.44;5112933;28;20126;-76
2023/07/09 05:28:10;;;;;;;35.42;25.38;;;;;;;24.96;100.00;101493.13;5113705;28;20392;-76
2023/07/09 05:33:57;;;;;;;29.77;25.52;;;;;;;25.85;100.00;101495.91;5113463;28;20089;-77
2023/07/09 05:39:44;;;;;;;31.80;22.13;;;;;;;26.76;100.00;101490.59;5113576;28;20054;-75
2023/07/09 05:45:31;;;;;;;27.50;22.55;;;;;;;27.26;97.66;101496.13;5113533;28;20046;-75
2023/07/09 05:51:18;;;;;;;25.52;21.92;;;;;;;27.86;94.43;101486.69;5113784;28;20055;-75
2023/07/09 05:57:06;;;;;;;26.30;21.70;;;;;;;28.41;89.75;101498.16;5113735;28;20046;-78
2023/07/09 06:02:53;;;;;;;29.27;23.55;;;;;;;28.76;86.58;101514.78;5113963;28;20046;-77
2023/07/09 06:08:40;;;;;;;32.30;22.70;;;;;;;29.27;86.30;101509.38;5112988;28;20051;-76
2023/07/09 06:11:07;;;;;;;27.73;21.25;;;;;;;29.58;81.94;101509.22;5112371;28;20048;-76
2023/07/09 06:16:54;;;;;;;28.70;21.92;;;;;;;29.90;81.65;101512.56;5112572;28;20055;-76
2023/07/09 06:22:41;;;;;;;26.13;19.60;;;;;;;30.44;77.60;101512.88;5113162;28;20072;-76
2023/07/09 06:28:32;;;;;;;23.25;16.83;;;;;;;31.18;74.52;101519.78;5112956;28;20074;-74
2023/07/09 06:34:19;;;;;;;20.98;16.38;;;;;;;31.87;72.26;101520.00;5113012;28;20169;-74
2023/07/09 06:40:08;;;;;;;20.95;16.23;;;;;;;32.42;66.69;101520.69;5112806;28;20540;-74
2023/07/09 06:42:36;;;;;;;18.98;15.63;;;;;;;32.65;66.63;101528.16;5094074;28;20103;-75
2023/07/09 06:45:01;;;;;;;18.73;15.60;;;;;;;33.00;65.77;101522.16;5093523;28;20043;-74
2023/07/09 06:47:26;;;;;;;21.90;15.53;;;;;;;33.41;64.97;101521.00;5094096;28;20020;-75
2023/07/09 06:53:13;;;;;;;17.98;14.05;;;;;;;34.43;60.15;101524.97;5112629;28;20065;-74
2023/07/09 06:59:00;;;;;;;18.20;13.33;;;;;;;34.30;59.55;101530.94;5112251;28;20526;-74
2023/07/09 07:01:25;;;;;;;18.33;13.60;;;;;;;34.48;58.85;101529.44;5112201;28;20031;-74
2023/07/09 07:03:51;;;;;;;19.57;13.13;;;;;;;34.65;57.58;101528.25;5093235;28;20088;-74
2023/07/09 07:06:16;;;;;;;18.00;13.33;;;;;;;34.90;57.13;101532.44;5112235;28;20036;-75
2023/07/09 07:08:42;;;;;;;16.00;13.27;;;;;;;34.93;57.97;101526.16;5093747;28;20502;-75
2023/07/09 07:14:29;;;;;;;15.50;12.63;;;;;;;35.77;53.92;101535.84;5112755;28;20041;-76
2023/07/09 07:16:56;;;;;;;17.27;12.27;;;;;;;35.88;53.96;101536.88;5111220;28;20047;-76
2023/07/09 07:19:21;;;;;;;18.58;12.23;;;;;;;36.31;51.66;101541.25;5111983;28;20024;-75
2023/07/09 07:21:47;;;;;;;16.50;13.00;;;;;;;36.29;49.24;101540.78;5111933;28;20460;-76
2023/07/09 07:27:37;;;;;;;16.55;12.48;;;;;;;36.42;48.41;101536.63;5111910;28;20038;-75
2023/07/09 07:33:24;;;;;;;16.92;12.15;;;;;;;37.59;47.25;101547.84;5112132;28;20043;-76
2023/07/09 07:39:11;;;;;;;16.65;10.65;;;;;;;38.89;43.85;101541.06;5111769;28;20081;-75
2023/07/09 07:44:58;;;;;;;14.38;11.07;;;;;;;40.10;42.37;101535.91;5112000;28;20449;-75
2023/07/09 07:50:47;;;;;;;14.02;10.10;;;;;;;41.48;37.50;101537.63;5111939;28;20031;-75
2023/07/09 07:56:34;;;;;;;10.95;7.50;;;;;;;41.75;32.63;101544.31;5114124;28;20131;-77
2023/07/09 08:02:23;;;;;;;12.48;7.35;;;;;;;40.70;32.41;101535.06;5114302;28;20533;-77
2023/07/09 08:08:11;;;;;;;11.50;6.82;;;;;;;41.05;32.72;101528.56;5115289;28;20108;-75
2023/07/09 08:13:58;;;;;;;9.02;6.93;;;;;;;42.51;30.49;101539.75;5115056;28;20518;-75
2023/07/09 08:16:23;;;;;;;10.97;7.43;;;;;;;42.99;29.22;101533.19;5113880;28;20039;-76
2023/07/09 08:22:10;;;;;;;10.50;6.60;;;;;;;43.62;27.91;101536.38;5114569;28;20689;-77
2023/07/09 08:27:57;;;;;;;15.32;8.05;;;;;;;43.78;27.58;101528.13;5114843;28;20495;-75
2023/07/09 08:33:44;;;;;;;12.98;7.30;;;;;;;43.71;28.71;101533.88;5114838;28;20088;-75
2023/07/09 08:36:09;;;;;;;10.83;6.60;;;;;;;43.14;28.52;101528.19;5095676;28;20044;-74
2023/07/09 08:38:35;;;;;;;9.25;7.10;;;;;;;42.53;29.53;101520.44;5114822;28;20036;-74
2023/07/09 08:44:24;;;;;;;;;;;;;;;43.29;31.49;101526.78;5114879;28;20050;-76
2023/07/09 08:50:23;;;;;;;10.35;7.25;;;;;;;43.91;28.36;101521.88;5114658;28;20089;-75
2023/07/09 08:56:13;;;;;;;;;;;;;;;45.35;27.62;101531.66;5114988;28;20126;-74
2023/07/09 09:02:00;;;;;;;;;;;;;;;45.08;27.44;101536.66;5114496;28;20554;-73
2023/07/09 09:07:55;;;;;;;11.88;7.45;;;;;;;44.34;26.23;101522.75;5114255;28;20514;-74
2023/07/09 09:13:43;;;;;;;8.48;7.53;;;;;;;44.13;25.32;101517.50;5114244;28;20050;-72
2023/07/09 09:19:36;;;;;;;9.43;7.80;;;;;;;44.86;26.24;101512.97;5114087;28;20038;-72
2023/07/09 09:25:28;;;;;;;11.75;7.32;;;;;;;45.69;24.02;101522.06;5114056;28;20134;-75
2023/07/09 09:31:16;;;;;;;8.70;7.45;;;;;;;47.05;22.73;101522.88;5113937;28;20039;-74
2023/07/09 09:37:11;;;;;;;10.93;8.20;;;;;;;46.88;23.82;101512.88;5113876;28;20395;-74
2023/07/09 09:43:00;;;;;;;11.25;7.47;;;;;;;47.36;22.41;101500.47;5113839;28;20073;-72
2023/07/09 09:48:49;;;;;;;11.55;8.18;;;;;;;47.32;21.37;101493.34;5113711;28;20043;-74
2023/07/09 09:54:40;;;;;;;10.13;7.15;;;;;;;46.58;21.63;101482.97;5113757;28;20089;-74
2023/07/09 10:00:33;;;;;;;11.27;7.43;;;;;;;45.10;24.15;101472.88;5113736;28;20042;-75
2023/07/09 10:06:33;;;;;;;10.73;7.13;;;;;;;44.76;25.92;101461.09;5113677;28;20069;-75
2023/07/09 10:12:36;;;;;;;10.07;7.65;;;;;;;41.94;28.89;101471.94;5113397;28;20047;-74
2023/07/09 10:22:05;;;;;;;14.45;7.63;;;;;;;39.96;32.24;101471.47;5113182;28;20049;-74
2023/07/09 10:27:58;;;;;;;;;;;;;;;39.76;32.56;101476.63;5113410;28;20164;-72
2023/07/09 10:33:48;;;;;;;;;;;;;;;43.23;28.02;101487.00;5113183;28;20104;-77
2023/07/09 10:39:50;;;;;;;10.00;7.25;;;;;;;44.65;26.00;101486.72;5113083;28;20088;-76
2023/07/09 10:49:02;;;;;;;10.77;7.82;;;;;;;41.45;31.81;101490.72;5112657;28;20049;-74
2023/07/09 10:55:00;;;;;;;;;;;;;;;40.98;31.78;101476.06;5113178;28;20491;-74
2023/07/09 11:00:48;;;;;;;8.70;6.78;;;;;;;40.22;32.19;101457.81;5112563;28;20538;-75
2023/07/09 11:06:41;;;;;;;8.32;6.45;;;;;;;38.78;36.65;101447.91;5112727;28;20407;-75
2023/07/09 11:12:39;;;;;;;;;;;;;;;39.54;33.95;101454.19;5112346;28;20615;-74
2023/07/09 11:18:31;;;;;;;11.13;6.82;;;;;;;38.97;35.71;101469.97;5112504;28;20096;-75
2023/07/09 11:24:32;;;;;;;9.07;6.60;;;;;;;38.71;37.64;101477.44;5112412;28;20051;-74
2023/07/09 11:30:23;;;;;;;;;;;;;;;39.41;36.03;101480.13;5113561;28;20042;-75
2023/07/09 11:36:15;;;;;;;15.02;7.60;;;;;;;38.61;37.97;101466.16;5115631;28;20463;-74
2023/07/09 11:42:03;;;;;;;11.25;6.88;;;;;;;37.69;40.17;101474.59;5115772;28;20070;-76
2023/07/09 11:47:53;;;;;;;10.15;7.05;;;;;;;37.15;41.06;101485.13;5115926;28;20058;-76
2023/07/09 11:53:47;;;;;;;11.27;6.15;;;;;;;36.75;42.96;101487.78;5115549;28;20092;-76
2023/07/09 11:59:40;;;;;;;8.93;7.07;;;;;;;36.23;42.50;101501.28;5115504;28;20467;-75
2023/07/09 12:05:29;;;;;;;9.03;5.40;;;;;;;35.79;44.37;101508.44;5115383;28;20507;-75
2023/07/09 12:11:25;;;;;;;11.18;6.30;;;;;;;35.77;44.89;101492.09;5115235;28;20449;-75
2023/07/09 12:17:12;;;;;;;11.85;6.90;;;;;;;35.83;46.80;101470.34;5115331;28;20039;-74
2023/07/09 12:23:00;;;;;;;10.95;7.40;;;;;;;35.37;48.36;101489.75;5115085;28;20131;-76
2023/07/09 12:28:54;;;;;;;11.93;6.80;;;;;;;34.71;49.76;101474.03;5115152;28;20096;-75
2023/07/09 12:34:42;;;;;;;12.77;8.00;;;;;;;34.42;52.18;101462.25;5114646;28;20100;-75
2023/07/09 12:40:30;;;;;;;10.77;7.80;;;;;;;33.98;55.99;101474.59;5114493;28;20042;-75
2023/07/09 12:46:18;;;;;;;12.98;8.85;;;;;;;33.84;55.82;101478.66;5114710;28;20388;-74
2023/07/09 12:52:22;;;;;;;14.67;8.90;;;;;;;33.79;56.35;101472.50;5114655;28;20066;-74
2023/07/09 12:58:13;;;;;;;22.52;13.30;;;;;;;32.73;64.14;101459.94;5114820;28;20127;-76
2023/07/09 13:04:01;;;;;;;19.52;15.65;;;;;;;31.38;70.57;101471.97;5114312;28;20085;-74
2023/07/09 13:09:51;;;;;;;21.08;18.00;;;;;;;30.91;69.61;101474.13;5114311;28;20047;-74
2023/07/09 13:15:37;;;;;;;25.75;17.83;;;;;;;30.18;74.40;101488.97;5114591;28;20062;-73
2023/07/09 13:21:24;;;;;;;18.90;15.70;;;;;;;29.70;76.85;101467.19;5113908;28;20174;-73
2023/07/09 13:27:13;;;;;;;19.58;15.57;;;;;;;29.36;75.94;101473.53;5114325;28;20065;-74
2023/07/09 13:33:00;;;;;;;19.83;14.55;;;;;;;28.92;77.36;101458.97;5114144;28;20043;-74
2023/07/09 13:38:49;;;;;;;19.92;13.38;;;;;;;28.75;78.66;101469.09;5113525;28;20073;-74
2023/07/09 13:44:36;;;;;;;18.35;13.18;;;;;;;28.53;80.31;101470.00;5114024;28;20065;-78
2023/07/09 13:50:23;;;;;;;14.90;12.00;;;;;;;28.60;78.54;101504.19;5113463;28;20287;-76
2023/07/09 13:56:10;;;;;;;15.10;11.18;;;;;;;28.27;83.38;101591.78;5113298;28;20038;-75
2023/07/09 14:01:59;;;;;;;14.00;7.93;;;;;;;27.51;88.66;101603.78;5114097;28;20046;-82
2023/07/09 14:07:46;;;;;;;7.97;6.00;;;;;;;26.46;97.90;101603.69;5113668;28;20087;-82
2023/07/09 14:13:33;;;;;;;12.50;7.00;;;;;;;25.40;100.00;101609.69;5113206;28;20043;-81
2023/07/09 14:22:42;;;;;;;9.57;6.00;;;;;;;24.73;100.00;101628.00;5113264;28;20064;-80
2023/07/09 14:28:29;;;;;;;8.88;6.68;;;;;;;25.48;100.00;101611.00;5112993;28;20054;-80
2023/07/09 14:34:22;;;;;;;12.98;6.53;;;;;;;26.01;100.00;101580.59;5113508;28;20046;-84
2023/07/09 14:40:10;;;;;;;9.45;6.57;;;;;;;25.68;100.00;101577.00;5113166;28;20054;-80
2023/07/09 14:45:57;;;;;;;11.68;6.90;;;;;;;25.35;100.00;101584.31;5113180;28;20172;-81
2023/07/09 14:51:44;;;;;;;12.35;7.65;;;;;;;25.37;100.00;101587.56;5112648;28;20390;-81
2023/07/09 14:57:33;;;;;;;9.98;6.60;;;;;;;25.38;100.00;101583.72;5113057;28;20392;-82
2023/07/09 15:03:23;;;;;;;10.55;6.25;;;;;;;25.42;100.00;101569.13;5112761;28;20076;-83
2023/07/09 15:09:10;;;;;;;9.10;5.45;;;;;;;25.73;100.00;101574.19;5112794;28;20077;-81
2023/07/09 15:15:05;;;;;;;8.80;5.30;;;;;;;26.33;100.00;101571.56;5112316;28;20078;-80
2023/07/09 15:20:58;;;;;;;11.07;6.20;;;;;;;26.80;97.62;101575.88;5112065;28;20064;-79
2023/07/09 15:26:49;;;;;;;8.32;4.78;;;;;;;27.19;94.91;101572.63;5112422;28;20061;-81
2023/07/09 15:32:36;;;;;;;15.00;5.60;;;;;;;27.17;95.38;101586.66;5112189;28;20082;-82
2023/07/09 15:38:31;;;;;;;9.85;5.18;;;;;;;27.30;92.83;101579.50;5112064;28;20640;-81
2023/07/09 15:44:19;;;;;;;11.05;5.53;;;;;;;27.32;93.33;101582.75;5112337;28;20368;-81
2023/07/09 15:50:26;;;;;;;8.50;5.50;;;;;;;27.34;92.41;101594.25;5111826;28;20120;-80
2023/07/09 15:56:26;;;;;;;11.38;6.53;;;;;;;27.24;92.22;101586.25;5111288;28;20047;-80
2023/07/09 16:02:14;;;;;;;8.82;5.53;;;;;;;27.66;91.05;101581.47;5108701;28;20054;-80
2023/07/09 16:08:01;;;;;;;8.40;5.20;;;;;;;27.83;93.52;101567.88;5111952;28;20062;-82
2023/07/09 16:13:50;;;;;;;10.90;6.13;;;;;;;27.77;87.49;101560.88;5112352;28;20070;-77
2023/07/09 16:19:38;;;;;;;8.07;5.07;;;;;;;28.02;88.05;101551.97;5115327;28;20043;-79
2023/07/09 16:25:31;;;;;;;12.15;6.00;;;;;;;28.15;86.31;101544.78;5115787;28;20135;-81
2023/07/09 16:31:18;;;;;;;9.65;6.03;;;;;;;28.24;85.29;101547.56;5115386;28;20046;-81
2023/07/09 16:37:16;;;;;;;9.80;5.32;;;;;;;28.48;84.40;101559.03;5115154;28;20047;-80
2023/07/09 16:43:13;;;;;;;10.38;5.60;;;;;;;28.79;81.75;101559.00;5115330;28;20051;-81
2023/07/09 16:49:02;;;;;;;12.00;5.90;;;;;;;28.71;83.84;101572.75;5114898;28;20047;-78
2023/07/09 16:54:48;;;;;;;12.75;6.22;;;;;;;27.82;86.93;101566.25;5115054;28;20403;-83
2023/07/09 17:00:36;;;;;;;12.43;6.10;;;;;;;27.11;92.40;101576.09;5114698;28;20072;-84
2023/07/09 17:06:23;;;;;;;12.00;5.80;;;;;;;26.73;95.35;101580.97;5114478;28;20042;-82
2023/07/09 17:12:11;;;;;;;11.30;5.70;;;;;;;26.65;96.26;101596.22;5114475;28;20268;-84
2023/07/09 17:18:00;;;;;;;11.45;5.72;;;;;;;26.74;96.30;101594.38;5114191;28;20155;-83
2023/07/09 17:23:47;;;;;;;9.30;5.25;;;;;;;25.92;99.24;101600.47;5114695;28;20038;-81
2023/07/09 17:29:34;;;;;;;11.18;6.07;;;;;;;25.69;100.00;101590.41;5114261;28;20085;-82
2023/07/09 17:35:22;;;;;;;9.75;5.85;;;;;;;25.99;98.55;101594.59;5114666;28;20054;-82
2023/07/09 17:41:09;;;;;;;11.30;5.70;;;;;;;26.16;98.57;101603.09;5113390;28;20058;-84
2023/07/09 17:46:56;;;;;;;7.68;4.97;;;;;;;26.23;94.05;101606.25;5114108;28;20060;-83
2023/07/09 17:52:43;;;;;;;10.55;5.20;;;;;;;25.79;96.39;101611.38;5114175;28;20061;-80
2023/07/09 17:58:37;;;;;;;8.57;5.43;;;;;;;25.36;97.46;101629.75;5113620;28;20054;-83
2023/07/09 18:04:24;;;;;;;10.73;5.68;;;;;;;25.21;98.74;101634.34;5113696;28;20092;-81
2023/07/09 18:10:48;;;;;;;7.10;4.75;;;;;;;24.78;100.00;101640.81;5113600;28;20457;-83
2023/07/09 18:16:16;;;;;;;9.18;5.63;;;;;;;24.38;100.00;101649.13;5113170;28;19914;-80
2023/07/09 18:22:12;;;;;;;9.68;6.05;;;;;;;24.17;100.00;101663.22;5113307;28;20078;-81
2023/07/09 18:28:01;;;;;;;8.85;5.35;;;;;;;24.24;100.00;101659.06;5112922;28;20043;-81
2023/07/09 18:33:48;;;;;;;8.63;5.03;;;;;;;23.79;100.00;101661.03;5113167;28;20046;-80
2023/07/09 18:39:35;;;;;;;7.40;5.32;;;;;;;23.77;100.00;101678.81;5112779;28;20042;-81
2023/07/09 18:45:25;;;;;;;7.90;5.97;;;;;;;23.70;100.00;101670.06;5112709;28;20327;-81
2023/07/09 18:51:13;;;;;;;9.73;5.78;;;;;;;23.25;100.00;101671.09;5112835;28;20419;-80
2023/07/09 18:57:00;;;;;;;7.72;5.97;;;;;;;22.98;100.00;101663.25;5112814;28;20392;-77
2023/07/09 19:02:50;;;;;;;7.53;6.03;;;;;;;22.67;100.00;101657.84;5112614;28;20272;-77
2023/07/09 19:08:40;;;;;;;8.32;6.78;;;;;;;22.46;100.00;101640.66;5112812;28;20065;-76
2023/07/09 19:14:27;;;;;;;7.65;6.85;;;;;;;22.34;100.00;101644.78;5112760;28;20046;-77
2023/07/09 19:20:17;;;;;;;7.78;6.15;;;;;;;22.28;100.00;101649.41;5112510;28;20544;-79
2023/07/09 19:26:04;;;;;;;9.40;7.68;;;;;;;22.01;100.00;101638.75;5112395;28;20514;-79
2023/07/09 19:32:12;;;;;;;11.35;6.45;;;;;;;21.89;100.00;101641.72;5112792;28;20037;-79
2023/07/09 19:37:59;;;;;;;9.43;6.65;;;;;;;21.83;100.00;101637.34;5112625;28;20062;-78
2023/07/09 19:43:46;;;;;;;13.93;7.50;;;;;;;21.61;100.00;101662.06;5111981;28;20269;-76
2023/07/09 19:49:33;;;;;;;10.13;7.75;;;;;;;21.46;100.00;101680.25;5112055;28;20038;-78
2023/07/09 19:55:35;;;;;;;9.80;7.38;;;;;;;21.34;100.00;101689.44;5116182;28;20043;-77
2023/07/09 20:01:22;;;;;;;11.90;7.90;;;;;;;21.25;100.00;101680.16;5115790;28;20544;-79
2023/07/09 20:07:12;;;;;;;11.23;6.88;;;;;;;21.27;100.00;101696.22;5115474;28;20046;-79
2023/07/09 20:12:59;;;;;;;11.65;7.03;;;;;;;21.22;100.00;101694.25;5115563;28;20042;-76
2023/07/09 20:18:46;;;;;;;11.13;7.70;;;;;;;21.10;100.00;101688.19;5115962;28;20491;-77
2023/07/09 20:24:33;;;;;;;10.23;8.07;;;;;;;21.12;100.00;101704.28;5115331;28;20457;-78
2023/07/09 20:30:21;;;;;;;10.05;8.43;;;;;;;21.03;100.00;101710.19;5114998;28;20269;-77
2023/07/09 20:36:08;;;;;;;15.02;8.05;;;;;;;21.08;100.00;101720.28;5115613;28;20073;-80
2023/07/09 20:41:56;;;;;;;14.02;8.40;;;;;;;21.04;100.00;101727.34;5114979;28;20379;-79
2023/07/09 20:47:43;;;;;;;11.65;8.38;;;;;;;21.00;100.00;101713.44;5115056;28;20126;-79
2023/07/09 20:53:30;;;;;;;11.30;8.18;;;;;;;21.02;100.00;101726.78;5114828;28;20035;-79
2023/07/09 20:59:17;;;;;;;10.60;7.03;;;;;;;21.04;100.00;101733.59;5115051;28;20089;-81
2023/07/09 21:05:05;;;;;;;12.00;6.70;;;;;;;20.93;100.00;101742.78;5114496;28;20120;-81
2023/07/09 21:10:52;;;;;;;12.27;7.53;;;;;;;20.59;100.00;101731.38;5114973;28;20513;-79
2023/07/09 21:16:45;;;;;;;11.10;7.53;;;;;;;20.50;100.00;101727.47;5114745;28;20478;-78
2023/07/09 21:22:32;;;;;;;14.75;8.75;;;;;;;20.42;100.00;101726.03;5113828;28;20096;-81
2023/07/09 21:28:19;;;;;;;12.02;8.18;;;;;;;20.31;100.00;101718.84;5113970;28;20300;-79
2023/07/09 21:34:33;;;;;;;12.00;8.70;;;;;;;20.19;100.00;101715.47;5114331;28;20050;-79
2023/07/09 21:40:23;;;;;;;11.80;7.85;;;;;;;20.16;100.00;101715.97;5114497;28;20540;-78
2023/07/09 21:46:26;;;;;;;11.57;7.95;;;;;;;20.02;100.00;101710.16;5114025;28;20100;-79
2023/07/09 21:52:46;;;;;;;12.73;7.32;;;;;;;19.90;100.00;101714.06;5115402;28;20038;-81
2023/07/09 21:58:33;;;;;;;12.60;6.95;;;;;;;19.85;100.00;101719.44;5114323;28;20050;-77
2023/07/09 22:04:30;;;;;;;13.93;6.90;;;;;;;19.80;100.00;101723.75;5114456;28;20427;-80
2023/07/09 22:10:20;;;;;;;12.90;6.60;;;;;;;19.74;100.00;101741.03;5113322;28;20070;-77
2023/07/09 22:16:08;;;;;;;12.43;6.68;;;;;;;19.67;100.00;101736.88;5113553;28;20441;-80
2023/07/09 22:21:56;;;;;;;9.73;5.97;;;;;;;19.39;100.00;101746.00;5113038;28;20049;-79
2023/07/09 22:27:43;;;;;;;9.02;5.38;;;;;;;19.24;100.00;101749.28;5113065;28;20123;-81
2023/07/09 22:33:31;;;;;;;9.20;4.68;;;;;;;19.11;100.00;101749.66;5113525;28;20388;-82
2023/07/09 22:39:18;;;;;;;10.45;5.03;;;;;;;19.02;100.00;101740.28;5112807;28;20088;-80
2023/07/09 22:45:06;;;;;;;10.40;3.70;;;;;;;19.04;100.00;101743.56;5113088;28;20084;-79
2023/07/09 22:50:54;;;;;;;13.23;4.20;;;;;;;18.91;100.00;101750.16;5112659;28;20097;-79
2023/07/09 22:56:40;;;;;;;8.48;3.55;;;;;;;18.86;100.00;101755.50;5113071;28;20054;-80
2023/07/09 23:02:27;;;;;;;6.85;3.72;;;;;;;18.91;100.00;101757.47;5112620;28;20272;-79
2023/07/09 23:08:24;;;;;;;8.25;3.33;;;;;;;18.96;100.00;101773.81;5111943;28;20268;-80
2023/07/09 23:14:21;;;;;;;5.35;3.00;;;;;;;18.97;100.00;101786.28;5112583;28;20116;-81
2023/07/09 23:20:18;;;;;;;9.35;3.35;;;;;;;18.99;100.00;101767.88;5112146;28;20123;-80
2023/07/09 23:26:09;;;;;;;9.95;4.07;;;;;;;18.86;100.00;101767.16;5112568;28;20434;-81
2023/07/09 23:31:56;;;;;;;9.15;3.60;;;;;;;18.77;100.00;101776.75;5112560;28;20391;-78
2023/07/09 23:37:45;;;;;;;9.60;3.28;;;;;;;18.75;100.00;101764.50;5111820;28;20158;-78
2023/07/09 23:43:38;;;;;;;12.40;3.58;;;;;;;18.70;100.00;101764.44;5112093;28;20043;-79
2023/07/09 23:49:28;;;;;;;7.85;3.25;;;;;;;18.68;100.00;101751.13;5112125;28;20277;-80
2023/07/09 23:55:16;;;;;;;12.30;4.35;;;;;;;18.67;100.00;101759.50;5112007;28;20066;-79
